sensor_id;sensor_type;location;lat;lon;timestamp;P1;durP1;ratioP1;P2;durP2;ratioP2
64297;SDS011;50639;53.270;7.956;2023-01-23T00:01:18;13.60;;;4.50;;
64297;SDS011;50639;53.270;7.956;2023-01-23T00:03:49;9.85;;;3.38;;
64297;SDS011;50639;53.270;7.956;2023-01-23T00:06:15;11.60;;;4.07;;
64297;SDS011;50639;53.270;7.956;2023-01-23T00:08:43;8.55;;;3.47;;
64297;SDS011;50639;53.270;7.956;2023-01-23T00:11:11;12.50;;;3.65;;
64297;SDS011;50639;53.270;7.956;2023-01-23T00:13:41;7.47;;;3.33;;
64297;SDS011;50639;53.270;7.956;2023-01-23T00:16:07;15.20;;;4.30;;
64297;SDS011;50639;53.270;7.956;2023-01-23T00:18:34;13.23;;;4.63;;
64297;SDS011;50639;53.270;7.956;2023-01-23T00:21:06;10.88;;;4.07;;
64297;SDS011;50639;53.270;7.956;2023-01-23T00:23:33;15.93;;;4.85;;
64297;SDS011;50639;53.270;7.956;2023-01-23T00:26:03;8.90;;;3.83;;
64297;SDS011;50639;53.270;7.956;2023-01-23T00:28:32;8.35;;;3.60;;
64297;SDS011;50639;53.270;7.956;2023-01-23T00:33:32;9.68;;;3.95;;
64297;SDS011;50639;53.270;7.956;2023-01-23T00:35:58;12.88;;;4.05;;
64297;SDS011;50639;53.270;7.956;2023-01-23T00:38:24;9.82;;;3.78;;
64297;SDS011;50639;53.270;7.956;2023-01-23T00:40:49;10.55;;;4.25;;
64297;SDS011;50639;53.270;7.956;2023-01-23T00:43:15;11.20;;;3.75;;
64297;SDS011;50639;53.270;7.956;2023-01-23T00:45:40;10.55;;;5.05;;
64297;SDS011;50639;53.270;7.956;2023-01-23T00:48:06;12.30;;;3.85;;
64297;SDS011;50639;53.270;7.956;2023-01-23T00:50:31;6.15;;;3.22;;
64297;SDS011;50639;53.270;7.956;2023-01-23T00:52:56;14.57;;;4.10;;
64297;SDS011;50639;53.270;7.956;2023-01-23T00:55:22;9.43;;;3.42;;
64297;SDS011;50639;53.270;7.956;2023-01-23T00:57:47;9.88;;;3.63;;
64297;SDS011;50639;53.270;7.956;2023-01-23T01:00:13;10.73;;;4.28;;
64297;SDS011;50639;53.270;7.956;2023-01-23T01:02:39;8.52;;;3.47;;
64297;SDS011;50639;53.270;7.956;2023-01-23T01:05:04;8.90;;;3.85;;
64297;SDS011;50639;53.270;7.956;2023-01-23T01:07:31;7.95;;;3.22;;
64297;SDS011;50639;53.270;7.956;2023-01-23T01:09:56;10.13;;;3.67;;
64297;SDS011;50639;53.270;7.956;2023-01-23T01:12:22;11.43;;;3.92;;
64297;SDS011;50639;53.270;7.956;2023-01-23T01:14:47;12.30;;;3.83;;
64297;SDS011;50639;53.270;7.956;2023-01-23T01:17:13;7.28;;;3.03;;
64297;SDS011;50639;53.270;7.956;2023-01-23T01:19:39;9.02;;;3.35;;
64297;SDS011;50639;53.270;7.956;2023-01-23T01:22:05;10.18;;;3.00;;
64297;SDS011;50639;53.270;7.956;2023-01-23T01:24:30;11.48;;;3.50;;
64297;SDS011;50639;53.270;7.956;2023-01-23T01:26:56;10.05;;;3.30;;
64297;SDS011;50639;53.270;7.956;2023-01-23T01:29:21;8.90;;;3.45;;
64297;SDS011;50639;53.270;7.956;2023-01-23T01:31:47;8.70;;;3.30;;
64297;SDS011;50639;53.270;7.956;2023-01-23T01:34:12;6.45;;;3.08;;
64297;SDS011;50639;53.270;7.956;2023-01-23T01:36:38;11.23;;;3.85;;
64297;SDS011;50639;53.270;7.956;2023-01-23T01:39:03;12.73;;;4.03;;
64297;SDS011;50639;53.270;7.956;2023-01-23T01:41:30;9.40;;;3.40;;
64297;SDS011;50639;53.270;7.956;2023-01-23T01:43:56;9.40;;;3.35;;
64297;SDS011;50639;53.270;7.956;2023-01-23T01:46:27;11.55;;;3.22;;
64297;SDS011;50639;53.270;7.956;2023-01-23T01:49:10;8.98;;;3.67;;
64297;SDS011;50639;53.270;7.956;2023-01-23T01:51:40;11.43;;;3.88;;
64297;SDS011;50639;53.270;7.956;2023-01-23T01:57:14;7.97;;;3.60;;
64297;SDS011;50639;53.270;7.956;2023-01-23T02:02:26;7.97;;;3.38;;
64297;SDS011;50639;53.270;7.956;2023-01-23T02:04:59;6.82;;;2.95;;
64297;SDS011;50639;53.270;7.956;2023-01-23T02:07:31;10.05;;;3.72;;
64297;SDS011;50639;53.270;7.956;2023-01-23T02:10:07;9.27;;;3.63;;
64297;SDS011;50639;53.270;7.956;2023-01-23T02:12:33;6.18;;;3.20;;
64297;SDS011;50639;53.270;7.956;2023-01-23T02:15:02;10.77;;;3.60;;
64297;SDS011;50639;53.270;7.956;2023-01-23T02:17:29;9.10;;;3.58;;
64297;SDS011;50639;53.270;7.956;2023-01-23T02:19:58;8.82;;;3.95;;
64297;SDS011;50639;53.270;7.956;2023-01-23T02:25:28;8.82;;;3.22;;
64297;SDS011;50639;53.270;7.956;2023-01-23T02:27:56;6.10;;;3.10;;
64297;SDS011;50639;53.270;7.956;2023-01-23T02:30:22;11.15;;;3.72;;
64297;SDS011;50639;53.270;7.956;2023-01-23T02:32:51;6.95;;;3.40;;
64297;SDS011;50639;53.270;7.956;2023-01-23T02:35:27;4.95;;;3.08;;
64297;SDS011;50639;53.270;7.956;2023-01-23T02:38:02;10.13;;;3.45;;
64297;SDS011;50639;53.270;7.956;2023-01-23T02:40:34;10.55;;;3.85;;
64297;SDS011;50639;53.270;7.956;2023-01-23T02:43:03;12.35;;;4.03;;
64297;SDS011;50639;53.270;7.956;2023-01-23T02:45:32;9.10;;;3.47;;
64297;SDS011;50639;53.270;7.956;2023-01-23T02:47:58;11.43;;;3.97;;
64297;SDS011;50639;53.270;7.956;2023-01-23T02:52:51;8.32;;;3.53;;
64297;SDS011;50639;53.270;7.956;2023-01-23T02:57:48;8.90;;;3.53;;
64297;SDS011;50639;53.270;7.956;2023-01-23T03:00:14;8.93;;;3.50;;
64297;SDS011;50639;53.270;7.956;2023-01-23T03:02:40;9.77;;;3.92;;
64297;SDS011;50639;53.270;7.956;2023-01-23T03:05:08;9.45;;;3.47;;
64297;SDS011;50639;53.270;7.956;2023-01-23T03:07:34;7.53;;;3.67;;
64297;SDS011;50639;53.270;7.956;2023-01-23T03:12:27;9.45;;;3.72;;
64297;SDS011;50639;53.270;7.956;2023-01-23T03:14:52;12.20;;;3.85;;
64297;SDS011;50639;53.270;7.956;2023-01-23T03:17:20;9.07;;;3.70;;
64297;SDS011;50639;53.270;7.956;2023-01-23T03:19:46;6.85;;;3.50;;
64297;SDS011;50639;53.270;7.956;2023-01-23T03:22:13;9.85;;;3.88;;
64297;SDS011;50639;53.270;7.956;2023-01-23T03:24:38;8.30;;;3.78;;
64297;SDS011;50639;53.270;7.956;2023-01-23T03:27:04;10.60;;;4.13;;
64297;SDS011;50639;53.270;7.956;2023-01-23T03:29:36;7.20;;;3.13;;
64297;SDS011;50639;53.270;7.956;2023-01-23T03:32:39;13.52;;;3.58;;
64297;SDS011;50639;53.270;7.956;2023-01-23T03:35:05;12.85;;;3.47;;
64297;SDS011;50639;53.270;7.956;2023-01-23T03:37:32;8.82;;;3.67;;
64297;SDS011;50639;53.270;7.956;2023-01-23T03:39:57;9.18;;;3.72;;
64297;SDS011;50639;53.270;7.956;2023-01-23T03:42:41;9.02;;;3.63;;
64297;SDS011;50639;53.270;7.956;2023-01-23T03:45:10;8.52;;;3.20;;
64297;SDS011;50639;53.270;7.956;2023-01-23T03:47:35;8.63;;;3.72;;
64297;SDS011;50639;53.270;7.956;2023-01-23T03:50:01;6.10;;;3.38;;
64297;SDS011;50639;53.270;7.956;2023-01-23T03:52:31;9.90;;;4.00;;
64297;SDS011;50639;53.270;7.956;2023-01-23T03:54:56;9.25;;;3.50;;
64297;SDS011;50639;53.270;7.956;2023-01-23T03:57:28;6.20;;;3.28;;
64297;SDS011;50639;53.270;7.956;2023-01-23T04:00:09;4.80;;;2.63;;
64297;SDS011;50639;53.270;7.956;2023-01-23T04:02:44;8.80;;;3.15;;
64297;SDS011;50639;53.270;7.956;2023-01-23T04:07:38;8.13;;;3.22;;
64297;SDS011;50639;53.270;7.956;2023-01-23T04:10:03;10.02;;;3.72;;
64297;SDS011;50639;53.270;7.956;2023-01-23T04:12:29;5.78;;;3.00;;
64297;SDS011;50639;53.270;7.956;2023-01-23T04:14:55;8.18;;;3.65;;
64297;SDS011;50639;53.270;7.956;2023-01-23T04:17:21;7.68;;;3.55;;
64297;SDS011;50639;53.270;7.956;2023-01-23T04:19:47;6.20;;;3.42;;
64297;SDS011;50639;53.270;7.956;2023-01-23T04:22:13;5.68;;;3.15;;
64297;SDS011;50639;53.270;7.956;2023-01-23T04:24:44;8.55;;;3.20;;
64297;SDS011;50639;53.270;7.956;2023-01-23T04:27:10;6.53;;;3.28;;
64297;SDS011;50639;53.270;7.956;2023-01-23T04:29:36;9.45;;;3.60;;
64297;SDS011;50639;53.270;7.956;2023-01-23T04:32:02;9.27;;;3.63;;
64297;SDS011;50639;53.270;7.956;2023-01-23T04:34:31;10.13;;;3.10;;
64297;SDS011;50639;53.270;7.956;2023-01-23T04:36:57;8.15;;;3.40;;
64297;SDS011;50639;53.270;7.956;2023-01-23T04:39:22;5.47;;;3.00;;
64297;SDS011;50639;53.270;7.956;2023-01-23T04:41:48;5.88;;;3.08;;
64297;SDS011;50639;53.270;7.956;2023-01-23T04:44:42;6.35;;;2.97;;
64297;SDS011;50639;53.270;7.956;2023-01-23T04:47:28;7.82;;;3.25;;
64297;SDS011;50639;53.270;7.956;2023-01-23T04:49:54;5.60;;;3.10;;
64297;SDS011;50639;53.270;7.956;2023-01-23T04:52:19;6.75;;;3.65;;
64297;SDS011;50639;53.270;7.956;2023-01-23T04:54:52;8.13;;;2.83;;
64297;SDS011;50639;53.270;7.956;2023-01-23T04:57:18;7.28;;;3.53;;
64297;SDS011;50639;53.270;7.956;2023-01-23T04:59:44;6.07;;;2.80;;
64297;SDS011;50639;53.270;7.956;2023-01-23T05:02:10;8.18;;;3.83;;
64297;SDS011;50639;53.270;7.956;2023-01-23T05:04:41;8.85;;;3.38;;
64297;SDS011;50639;53.270;7.956;2023-01-23T05:07:08;9.52;;;3.25;;
64297;SDS011;50639;53.270;7.956;2023-01-23T05:09:38;9.35;;;3.50;;
64297;SDS011;50639;53.270;7.956;2023-01-23T05:12:05;8.45;;;4.03;;
64297;SDS011;50639;53.270;7.956;2023-01-23T05:14:33;7.60;;;3.20;;
64297;SDS011;50639;53.270;7.956;2023-01-23T05:16:59;8.02;;;3.22;;
64297;SDS011;50639;53.270;7.956;2023-01-23T05:19:32;8.48;;;3.90;;
64297;SDS011;50639;53.270;7.956;2023-01-23T05:22:00;9.73;;;3.80;;
64297;SDS011;50639;53.270;7.956;2023-01-23T05:24:26;7.18;;;3.33;;
64297;SDS011;50639;53.270;7.956;2023-01-23T05:26:54;7.78;;;3.60;;
64297;SDS011;50639;53.270;7.956;2023-01-23T05:29:19;9.13;;;3.90;;
64297;SDS011;50639;53.270;7.956;2023-01-23T05:32:05;8.43;;;4.38;;
64297;SDS011;50639;53.270;7.956;2023-01-23T05:34:37;11.27;;;3.83;;
64297;SDS011;50639;53.270;7.956;2023-01-23T05:37:12;7.68;;;4.18;;
64297;SDS011;50639;53.270;7.956;2023-01-23T05:39:38;11.25;;;4.57;;
64297;SDS011;50639;53.270;7.956;2023-01-23T05:42:04;11.23;;;4.07;;
64297;SDS011;50639;53.270;7.956;2023-01-23T05:44:50;15.25;;;5.15;;
64297;SDS011;50639;53.270;7.956;2023-01-23T05:47:26;8.00;;;4.95;;
64297;SDS011;50639;53.270;7.956;2023-01-23T05:49:53;13.20;;;5.57;;
64297;SDS011;50639;53.270;7.956;2023-01-23T05:52:23;8.40;;;5.03;;
64297;SDS011;50639;53.270;7.956;2023-01-23T05:54:48;8.80;;;5.70;;
64297;SDS011;50639;53.270;7.956;2023-01-23T05:57:14;9.52;;;5.68;;
64297;SDS011;50639;53.270;7.956;2023-01-23T05:59:59;9.23;;;5.40;;
64297;SDS011;50639;53.270;7.956;2023-01-23T06:02:40;8.90;;;5.30;;
64297;SDS011;50639;53.270;7.956;2023-01-23T06:05:28;10.02;;;5.13;;
64297;SDS011;50639;53.270;7.956;2023-01-23T06:08:04;13.20;;;5.50;;
64297;SDS011;50639;53.270;7.956;2023-01-23T06:10:30;11.13;;;6.70;;
64297;SDS011;50639;53.270;7.956;2023-01-23T06:12:55;16.55;;;8.15;;
64297;SDS011;50639;53.270;7.956;2023-01-23T06:15:21;11.48;;;6.90;;
64297;SDS011;50639;53.270;7.956;2023-01-23T06:17:48;15.05;;;8.23;;
64297;SDS011;50639;53.270;7.956;2023-01-23T06:20:13;16.85;;;9.05;;
64297;SDS011;50639;53.270;7.956;2023-01-23T06:22:42;11.23;;;6.30;;
64297;SDS011;50639;53.270;7.956;2023-01-23T06:25:11;11.43;;;6.55;;
64297;SDS011;50639;53.270;7.956;2023-01-23T06:27:37;11.25;;;6.68;;
64297;SDS011;50639;53.270;7.956;2023-01-23T06:30:06;10.52;;;6.43;;
64297;SDS011;50639;53.270;7.956;2023-01-23T06:32:37;13.52;;;7.40;;
64297;SDS011;50639;53.270;7.956;2023-01-23T06:35:04;9.65;;;7.18;;
64297;SDS011;50639;53.270;7.956;2023-01-23T06:37:34;11.57;;;7.10;;
64297;SDS011;50639;53.270;7.956;2023-01-23T06:40:00;12.65;;;7.18;;
64297;SDS011;50639;53.270;7.956;2023-01-23T06:42:25;12.05;;;6.97;;
64297;SDS011;50639;53.270;7.956;2023-01-23T06:44:51;10.70;;;7.38;;
64297;SDS011;50639;53.270;7.956;2023-01-23T06:47:18;12.65;;;7.97;;
64297;SDS011;50639;53.270;7.956;2023-01-23T06:49:51;14.00;;;7.72;;
64297;SDS011;50639;53.270;7.956;2023-01-23T06:52:16;24.90;;;17.42;;
64297;SDS011;50639;53.270;7.956;2023-01-23T06:54:45;29.80;;;19.17;;
64297;SDS011;50639;53.270;7.956;2023-01-23T06:57:11;14.57;;;9.20;;
64297;SDS011;50639;53.270;7.956;2023-01-23T06:59:37;13.40;;;7.30;;
64297;SDS011;50639;53.270;7.956;2023-01-23T07:02:07;14.27;;;8.65;;
64297;SDS011;50639;53.270;7.956;2023-01-23T07:04:45;11.98;;;7.88;;
64297;SDS011;50639;53.270;7.956;2023-01-23T07:07:11;13.90;;;7.72;;
64297;SDS011;50639;53.270;7.956;2023-01-23T07:09:38;15.60;;;9.02;;
64297;SDS011;50639;53.270;7.956;2023-01-23T07:12:09;14.98;;;8.30;;
64297;SDS011;50639;53.270;7.956;2023-01-23T07:14:34;13.32;;;8.82;;
64297;SDS011;50639;53.270;7.956;2023-01-23T07:17:01;13.63;;;7.40;;
64297;SDS011;50639;53.270;7.956;2023-01-23T07:19:27;16.55;;;8.20;;
64297;SDS011;50639;53.270;7.956;2023-01-23T07:21:54;16.52;;;9.25;;
64297;SDS011;50639;53.270;7.956;2023-01-23T07:24:19;13.50;;;8.48;;
64297;SDS011;50639;53.270;7.956;2023-01-23T07:26:44;17.65;;;8.18;;
64297;SDS011;50639;53.270;7.956;2023-01-23T07:29:10;30.42;;;19.42;;
64297;SDS011;50639;53.270;7.956;2023-01-23T07:31:35;40.78;;;26.98;;
64297;SDS011;50639;53.270;7.956;2023-01-23T07:34:01;13.25;;;8.77;;
64297;SDS011;50639;53.270;7.956;2023-01-23T07:36:27;14.80;;;8.73;;
64297;SDS011;50639;53.270;7.956;2023-01-23T07:38:54;14.15;;;8.35;;
64297;SDS011;50639;53.270;7.956;2023-01-23T07:41:20;11.23;;;7.35;;
64297;SDS011;50639;53.270;7.956;2023-01-23T07:43:45;12.75;;;8.00;;
64297;SDS011;50639;53.270;7.956;2023-01-23T07:46:11;10.80;;;7.78;;
64297;SDS011;50639;53.270;7.956;2023-01-23T07:48:36;14.10;;;10.43;;
64297;SDS011;50639;53.270;7.956;2023-01-23T07:51:02;15.35;;;9.10;;
64297;SDS011;50639;53.270;7.956;2023-01-23T07:53:29;16.20;;;8.77;;
64297;SDS011;50639;53.270;7.956;2023-01-23T07:55:54;15.80;;;9.57;;
64297;SDS011;50639;53.270;7.956;2023-01-23T07:58:20;13.15;;;7.60;;
64297;SDS011;50639;53.270;7.956;2023-01-23T08:00:45;14.25;;;7.97;;
64297;SDS011;50639;53.270;7.956;2023-01-23T08:03:11;14.27;;;9.73;;
64297;SDS011;50639;53.270;7.956;2023-01-23T08:05:36;16.30;;;8.13;;
64297;SDS011;50639;53.270;7.956;2023-01-23T08:08:02;11.00;;;7.75;;
64297;SDS011;50639;53.270;7.956;2023-01-23T08:10:28;13.77;;;7.88;;
64297;SDS011;50639;53.270;7.956;2023-01-23T08:12:53;11.65;;;7.85;;
64297;SDS011;50639;53.270;7.956;2023-01-23T08:15:19;11.98;;;7.05;;
64297;SDS011;50639;53.270;7.956;2023-01-23T08:17:44;13.45;;;7.82;;
64297;SDS011;50639;53.270;7.956;2023-01-23T08:20:10;14.98;;;9.63;;
64297;SDS011;50639;53.270;7.956;2023-01-23T08:22:36;13.13;;;9.07;;
64297;SDS011;50639;53.270;7.956;2023-01-23T08:25:06;11.10;;;6.68;;
64297;SDS011;50639;53.270;7.956;2023-01-23T08:27:34;11.50;;;7.78;;
64297;SDS011;50639;53.270;7.956;2023-01-23T08:29:59;9.23;;;6.53;;
64297;SDS011;50639;53.270;7.956;2023-01-23T08:32:24;11.55;;;6.78;;
64297;SDS011;50639;53.270;7.956;2023-01-23T08:34:50;13.95;;;8.07;;
64297;SDS011;50639;53.270;7.956;2023-01-23T08:37:15;16.63;;;9.23;;
64297;SDS011;50639;53.270;7.956;2023-01-23T08:39:41;16.25;;;8.30;;
64297;SDS011;50639;53.270;7.956;2023-01-23T08:42:06;11.95;;;8.05;;
64297;SDS011;50639;53.270;7.956;2023-01-23T08:44:32;14.07;;;6.65;;
64297;SDS011;50639;53.270;7.956;2023-01-23T08:46:59;13.80;;;7.80;;
64297;SDS011;50639;53.270;7.956;2023-01-23T08:49:26;13.43;;;7.70;;
64297;SDS011;50639;53.270;7.956;2023-01-23T08:51:56;13.35;;;8.90;;
64297;SDS011;50639;53.270;7.956;2023-01-23T08:54:29;9.30;;;6.25;;
64297;SDS011;50639;53.270;7.956;2023-01-23T08:56:55;13.75;;;8.32;;
64297;SDS011;50639;53.270;7.956;2023-01-23T08:59:20;12.35;;;8.50;;
64297;SDS011;50639;53.270;7.956;2023-01-23T09:01:46;13.68;;;8.10;;
64297;SDS011;50639;53.270;7.956;2023-01-23T09:06:42;12.07;;;7.88;;
64297;SDS011;50639;53.270;7.956;2023-01-23T09:09:08;12.38;;;6.97;;
64297;SDS011;50639;53.270;7.956;2023-01-23T09:11:37;12.13;;;7.85;;
64297;SDS011;50639;53.270;7.956;2023-01-23T09:14:05;11.98;;;7.25;;
64297;SDS011;50639;53.270;7.956;2023-01-23T09:16:35;17.60;;;9.10;;
64297;SDS011;50639;53.270;7.956;2023-01-23T09:19:08;12.02;;;7.32;;
64297;SDS011;50639;53.270;7.956;2023-01-23T09:24:01;12.05;;;7.53;;
64297;SDS011;50639;53.270;7.956;2023-01-23T09:26:27;12.52;;;7.05;;
64297;SDS011;50639;53.270;7.956;2023-01-23T09:28:53;10.65;;;6.97;;
64297;SDS011;50639;53.270;7.956;2023-01-23T09:31:21;14.63;;;8.55;;
64297;SDS011;50639;53.270;7.956;2023-01-23T09:33:49;11.80;;;7.30;;
64297;SDS011;50639;53.270;7.956;2023-01-23T09:36:17;12.77;;;7.78;;
64297;SDS011;50639;53.270;7.956;2023-01-23T09:38:46;11.60;;;7.63;;
64297;SDS011;50639;53.270;7.956;2023-01-23T09:41:22;18.30;;;9.98;;
64297;SDS011;50639;53.270;7.956;2023-01-23T09:46:57;12.68;;;7.53;;
64297;SDS011;50639;53.270;7.956;2023-01-23T09:52:34;14.05;;;7.60;;
64297;SDS011;50639;53.270;7.956;2023-01-23T09:55:17;12.98;;;8.18;;
64297;SDS011;50639;53.270;7.956;2023-01-23T09:57:54;12.25;;;8.10;;
64297;SDS011;50639;53.270;7.956;2023-01-23T10:00:25;12.20;;;8.77;;
64297;SDS011;50639;53.270;7.956;2023-01-23T10:02:56;11.18;;;7.95;;
64297;SDS011;50639;53.270;7.956;2023-01-23T10:05:25;17.98;;;10.38;;
64297;SDS011;50639;53.270;7.956;2023-01-23T10:24:30;14.13;;;9.88;;
64297;SDS011;50639;53.270;7.956;2023-01-23T10:27:01;13.85;;;9.02;;
64297;SDS011;50639;53.270;7.956;2023-01-23T10:29:37;12.65;;;8.25;;
64297;SDS011;50639;53.270;7.956;2023-01-23T10:35:15;13.68;;;8.38;;
64297;SDS011;50639;53.270;7.956;2023-01-23T10:40:18;16.83;;;12.02;;
64297;SDS011;50639;53.270;7.956;2023-01-23T10:43:14;14.77;;;9.60;;
64297;SDS011;50639;53.270;7.956;2023-01-23T10:45:41;12.43;;;8.40;;
64297;SDS011;50639;53.270;7.956;2023-01-23T10:59:18;12.15;;;9.25;;
64297;SDS011;50639;53.270;7.956;2023-01-23T11:04:25;15.50;;;9.15;;
64297;SDS011;50639;53.270;7.956;2023-01-23T11:09:26;12.88;;;7.95;;
64297;SDS011;50639;53.270;7.956;2023-01-23T11:12:04;12.35;;;7.45;;
64297;SDS011;50639;53.270;7.956;2023-01-23T11:14:31;14.82;;;8.73;;
64297;SDS011;50639;53.270;7.956;2023-01-23T11:17:01;13.73;;;8.70;;
64297;SDS011;50639;53.270;7.956;2023-01-23T11:19:29;13.18;;;9.65;;
64297;SDS011;50639;53.270;7.956;2023-01-23T11:21:57;12.48;;;8.90;;
64297;SDS011;50639;53.270;7.956;2023-01-23T11:27:00;14.30;;;8.38;;
64297;SDS011;50639;53.270;7.956;2023-01-23T11:29:28;20.38;;;11.65;;
64297;SDS011;50639;53.270;7.956;2023-01-23T11:32:13;14.45;;;9.73;;
64297;SDS011;50639;53.270;7.956;2023-01-23T11:34:43;14.95;;;8.38;;
64297;SDS011;50639;53.270;7.956;2023-01-23T11:42:32;21.67;;;13.32;;
64297;SDS011;50639;53.270;7.956;2023-01-23T11:45:04;22.20;;;14.23;;
64297;SDS011;50639;53.270;7.956;2023-01-23T11:47:55;18.15;;;12.63;;
64297;SDS011;50639;53.270;7.956;2023-01-23T11:54:13;14.70;;;10.30;;
64297;SDS011;50639;53.270;7.956;2023-01-23T11:56:46;11.82;;;8.18;;
64297;SDS011;50639;53.270;7.956;2023-01-23T11:59:44;12.10;;;8.68;;
64297;SDS011;50639;53.270;7.956;2023-01-23T12:07:31;13.82;;;9.27;;
64297;SDS011;50639;53.270;7.956;2023-01-23T12:10:19;17.45;;;10.45;;
64297;SDS011;50639;53.270;7.956;2023-01-23T12:16:05;19.23;;;12.15;;
64297;SDS011;50639;53.270;7.956;2023-01-23T12:19:00;13.95;;;9.65;;
64297;SDS011;50639;53.270;7.956;2023-01-23T12:27:17;12.60;;;7.82;;
64297;SDS011;50639;53.270;7.956;2023-01-23T12:30:01;11.93;;;7.78;;
64297;SDS011;50639;53.270;7.956;2023-01-23T12:32:35;12.35;;;8.60;;
64297;SDS011;50639;53.270;7.956;2023-01-23T12:38:31;13.00;;;8.27;;
64297;SDS011;50639;53.270;7.956;2023-01-23T12:46:40;12.50;;;6.97;;
64297;SDS011;50639;53.270;7.956;2023-01-23T12:54:41;12.00;;;8.25;;
64297;SDS011;50639;53.270;7.956;2023-01-23T12:57:10;11.98;;;7.53;;
64297;SDS011;50639;53.270;7.956;2023-01-23T12:59:45;10.13;;;7.43;;
64297;SDS011;50639;53.270;7.956;2023-01-23T13:11:00;10.55;;;6.25;;
64297;SDS011;50639;53.270;7.956;2023-01-23T13:13:51;11.00;;;6.03;;
64297;SDS011;50639;53.270;7.956;2023-01-23T13:16:17;8.80;;;5.75;;
64297;SDS011;50639;53.270;7.956;2023-01-23T13:18:53;19.73;;;9.85;;
64297;SDS011;50639;53.270;7.956;2023-01-23T13:21:40;15.82;;;10.48;;
64297;SDS011;50639;53.270;7.956;2023-01-23T13:27:33;12.90;;;9.38;;
64297;SDS011;50639;53.270;7.956;2023-01-23T13:29:59;13.07;;;8.68;;
64297;SDS011;50639;53.270;7.956;2023-01-23T13:32:29;13.13;;;9.60;;
64297;SDS011;50639;53.270;7.956;2023-01-23T13:34:54;11.00;;;7.82;;
64297;SDS011;50639;53.270;7.956;2023-01-23T13:40:10;13.57;;;8.55;;
64297;SDS011;50639;53.270;7.956;2023-01-23T13:42:42;10.88;;;6.25;;
64297;SDS011;50639;53.270;7.956;2023-01-23T13:51:16;15.23;;;8.23;;
64297;SDS011;50639;53.270;7.956;2023-01-23T13:53:47;14.20;;;9.88;;
64297;SDS011;50639;53.270;7.956;2023-01-23T13:56:33;14.20;;;8.20;;
64297;SDS011;50639;53.270;7.956;2023-01-23T13:59:25;12.93;;;8.63;;
64297;SDS011;50639;53.270;7.956;2023-01-23T14:02:27;12.45;;;7.95;;
64297;SDS011;50639;53.270;7.956;2023-01-23T14:05:07;9.98;;;6.70;;
64297;SDS011;50639;53.270;7.956;2023-01-23T14:07:40;11.88;;;8.45;;
64297;SDS011;50639;53.270;7.956;2023-01-23T14:12:45;18.30;;;9.85;;
64297;SDS011;50639;53.270;7.956;2023-01-23T14:15:23;13.70;;;7.72;;
64297;SDS011;50639;53.270;7.956;2023-01-23T14:18:14;10.35;;;6.68;;
64297;SDS011;50639;53.270;7.956;2023-01-23T14:20:43;10.43;;;6.85;;
64297;SDS011;50639;53.270;7.956;2023-01-23T14:23:21;13.45;;;7.43;;
64297;SDS011;50639;53.270;7.956;2023-01-23T14:26:01;9.48;;;6.65;;
64297;SDS011;50639;53.270;7.956;2023-01-23T14:28:29;11.05;;;7.63;;
64297;SDS011;50639;53.270;7.956;2023-01-23T14:31:04;11.80;;;7.40;;
64297;SDS011;50639;53.270;7.956;2023-01-23T14:33:41;11.82;;;7.97;;
64297;SDS011;50639;53.270;7.956;2023-01-23T14:36:17;11.68;;;6.60;;
64297;SDS011;50639;53.270;7.956;2023-01-23T14:38:44;11.10;;;6.53;;
64297;SDS011;50639;53.270;7.956;2023-01-23T14:41:12;9.23;;;6.63;;
64297;SDS011;50639;53.270;7.956;2023-01-23T14:43:39;12.70;;;8.05;;
64297;SDS011;50639;53.270;7.956;2023-01-23T14:46:10;11.93;;;8.48;;
64297;SDS011;50639;53.270;7.956;2023-01-23T14:48:41;18.63;;;12.02;;
64297;SDS011;50639;53.270;7.956;2023-01-23T14:54:01;18.55;;;10.88;;
64297;SDS011;50639;53.270;7.956;2023-01-23T14:56:31;11.88;;;8.25;;
64297;SDS011;50639;53.270;7.956;2023-01-23T14:59:00;13.15;;;9.40;;
64297;SDS011;50639;53.270;7.956;2023-01-23T15:01:27;11.35;;;7.47;;
64297;SDS011;50639;53.270;7.956;2023-01-23T15:03:57;11.48;;;8.13;;
64297;SDS011;50639;53.270;7.956;2023-01-23T15:06:24;10.25;;;7.80;;
64297;SDS011;50639;53.270;7.956;2023-01-23T15:08:50;11.23;;;7.13;;
64297;SDS011;50639;53.270;7.956;2023-01-23T15:11:16;9.35;;;6.18;;
64297;SDS011;50639;53.270;7.956;2023-01-23T15:13:50;13.63;;;8.15;;
64297;SDS011;50639;53.270;7.956;2023-01-23T15:16:20;12.85;;;7.70;;
64297;SDS011;50639;53.270;7.956;2023-01-23T15:18:52;12.10;;;7.75;;
64297;SDS011;50639;53.270;7.956;2023-01-23T15:21:35;11.20;;;7.20;;
64297;SDS011;50639;53.270;7.956;2023-01-23T15:26:36;12.18;;;7.43;;
64297;SDS011;50639;53.270;7.956;2023-01-23T15:34:33;11.70;;;8.23;;
64297;SDS011;50639;53.270;7.956;2023-01-23T15:37:04;14.27;;;9.65;;
64297;SDS011;50639;53.270;7.956;2023-01-23T15:39:54;14.95;;;10.30;;
64297;SDS011;50639;53.270;7.956;2023-01-23T15:42:26;13.25;;;9.38;;
64297;SDS011;50639;53.270;7.956;2023-01-23T15:44:54;15.63;;;10.38;;
64297;SDS011;50639;53.270;7.956;2023-01-23T15:47:19;26.30;;;18.17;;
64297;SDS011;50639;53.270;7.956;2023-01-23T15:49:45;14.15;;;8.20;;
64297;SDS011;50639;53.270;7.956;2023-01-23T15:52:24;10.15;;;7.10;;
64297;SDS011;50639;53.270;7.956;2023-01-23T15:54:52;10.93;;;7.97;;
64297;SDS011;50639;53.270;7.956;2023-01-23T15:57:20;11.90;;;7.32;;
64297;SDS011;50639;53.270;7.956;2023-01-23T15:59:45;10.43;;;6.75;;
64297;SDS011;50639;53.270;7.956;2023-01-23T16:02:14;13.82;;;9.98;;
64297;SDS011;50639;53.270;7.956;2023-01-23T16:04:41;15.55;;;9.50;;
64297;SDS011;50639;53.270;7.956;2023-01-23T16:07:10;11.27;;;7.40;;
64297;SDS011;50639;53.270;7.956;2023-01-23T16:09:43;12.90;;;7.18;;
64297;SDS011;50639;53.270;7.956;2023-01-23T16:12:13;9.70;;;6.93;;
64297;SDS011;50639;53.270;7.956;2023-01-23T16:14:41;13.30;;;7.75;;
64297;SDS011;50639;53.270;7.956;2023-01-23T16:17:07;14.73;;;8.57;;
64297;SDS011;50639;53.270;7.956;2023-01-23T16:19:32;11.30;;;6.85;;
64297;SDS011;50639;53.270;7.956;2023-01-23T16:21:58;11.70;;;7.32;;
64297;SDS011;50639;53.270;7.956;2023-01-23T16:24:24;17.98;;;10.93;;
64297;SDS011;50639;53.270;7.956;2023-01-23T16:26:51;19.75;;;11.10;;
64297;SDS011;50639;53.270;7.956;2023-01-23T16:29:24;16.92;;;10.27;;
64297;SDS011;50639;53.270;7.956;2023-01-23T16:31:57;21.08;;;13.68;;
64297;SDS011;50639;53.270;7.956;2023-01-23T16:34:23;15.98;;;9.80;;
64297;SDS011;50639;53.270;7.956;2023-01-23T16:36:51;17.17;;;8.93;;
64297;SDS011;50639;53.270;7.956;2023-01-23T16:39:19;13.07;;;7.32;;
64297;SDS011;50639;53.270;7.956;2023-01-23T16:41:47;13.75;;;8.88;;
64297;SDS011;50639;53.270;7.956;2023-01-23T16:44:14;15.43;;;10.80;;
64297;SDS011;50639;53.270;7.956;2023-01-23T16:46:45;14.35;;;8.07;;
64297;SDS011;50639;53.270;7.956;2023-01-23T16:49:11;12.95;;;8.82;;
64297;SDS011;50639;53.270;7.956;2023-01-23T16:51:38;15.55;;;10.63;;
64297;SDS011;50639;53.270;7.956;2023-01-23T16:54:04;16.87;;;10.43;;
64297;SDS011;50639;53.270;7.956;2023-01-23T16:56:35;21.38;;;12.55;;
64297;SDS011;50639;53.270;7.956;2023-01-23T16:59:03;16.20;;;9.30;;
64297;SDS011;50639;53.270;7.956;2023-01-23T17:01:30;15.75;;;9.95;;
64297;SDS011;50639;53.270;7.956;2023-01-23T17:04:00;16.55;;;11.30;;
64297;SDS011;50639;53.270;7.956;2023-01-23T17:06:28;16.33;;;9.75;;
64297;SDS011;50639;53.270;7.956;2023-01-23T17:08:54;19.55;;;12.50;;
64297;SDS011;50639;53.270;7.956;2023-01-23T17:11:33;17.88;;;12.13;;
64297;SDS011;50639;53.270;7.956;2023-01-23T17:14:05;23.90;;;15.40;;
64297;SDS011;50639;53.270;7.956;2023-01-23T17:16:37;33.65;;;20.83;;
64297;SDS011;50639;53.270;7.956;2023-01-23T17:19:05;26.15;;;15.50;;